Time;durP1;ratioP1;P1;durP2;ratioP2;P2;SDS_P1;SDS_P2;PMS_P1;PMS_P2;Temp;Humidity;BMP_temperature;BMP_pressure;BME280_temperature;BME280_humidity;BME280_pressure;Samples;Min_cycle;Max_cycle;Signal;HPM_P1;HPM_P2
2022/08/02 00:02:25;;;;;;;4.70;2.20;;;19.00;99.90;;;;;;5052259;28;20029;-70
2022/08/02 00:04:50;;;;;;;2.67;2.40;;;19.00;99.90;;;;;;5055786;28;20079;-70
2022/08/02 00:07:16;;;;;;;2.50;2.10;;;19.00;99.90;;;;;;5050182;28;20040;-70
2022/08/02 00:09:43;;;;;;;2.40;2.20;;;19.00;99.90;;;;;;5058121;28;20479;-71
2022/08/02 00:12:09;;;;;;;2.53;1.77;;;18.90;99.90;;;;;;5057770;28;20028;-70
2022/08/02 00:14:35;;;;;;;3.78;2.65;;;18.90;99.90;;;;;;5052610;28;20045;-70
2022/08/02 00:17:01;;;;;;;3.83;2.67;;;18.90;99.90;;;;;;5056260;28;20041;-70
2022/08/02 00:19:26;;;;;;;4.60;2.78;;;18.80;99.90;;;;;;5049232;28;20049;-70
2022/08/02 00:21:52;;;;;;;3.33;2.38;;;18.70;99.90;;;;;;5053764;28;20481;-70
2022/08/02 00:24:17;;;;;;;2.55;2.40;;;18.70;99.90;;;;;;5055057;28;20115;-70
2022/08/02 00:26:43;;;;;;;4.40;2.47;;;18.60;99.90;;;;;;5058770;28;20043;-70
2022/08/02 00:29:09;;;;;;;3.08;2.50;;;18.60;99.90;;;;;;5055000;28;20040;-71
2022/08/02 00:31:34;;;;;;;4.13;2.60;;;18.70;99.90;;;;;;5054442;28;20128;-70
2022/08/02 00:34:00;;;;;;;3.25;2.58;;;18.70;99.90;;;;;;5055051;28;20033;-69
2022/08/02 00:36:26;;;;;;;4.93;2.63;;;18.80;99.90;;;;;;5055556;28;20040;-69
2022/08/02 00:38:51;;;;;;;2.33;2.08;;;18.80;99.90;;;;;;5060250;28;20052;-70
2022/08/02 00:41:20;;;;;;;2.97;2.30;;;18.70;99.90;;;;;;5063685;28;20066;-70
2022/08/02 00:43:47;;;;;;;3.58;2.20;;;18.60;99.90;;;;;;5057933;28;20075;-70
2022/08/02 00:46:14;;;;;;;3.08;2.47;;;18.60;99.90;;;;;;5059083;28;20032;-70
2022/08/02 00:48:40;;;;;;;3.08;2.78;;;18.50;99.90;;;;;;5058860;28;20029;-71
2022/08/02 00:51:06;;;;;;;4.72;2.70;;;18.40;99.90;;;;;;5059300;28;20047;-70
2022/08/02 00:53:32;;;;;;;3.17;2.67;;;18.30;99.90;;;;;;5058003;28;20119;-70
2022/08/02 00:55:58;;;;;;;4.43;2.75;;;18.20;99.90;;;;;;5060929;28;20116;-71
2022/08/02 00:58:24;;;;;;;3.33;2.60;;;18.20;99.90;;;;;;5059090;28;20036;-70
2022/08/02 01:00:49;;;;;;;2.97;2.67;;;18.10;99.90;;;;;;5059387;28;20041;-71
2022/08/02 01:03:15;;;;;;;3.20;2.58;;;18.20;99.90;;;;;;5056357;28;20040;-71
2022/08/02 01:05:42;;;;;;;3.47;3.17;;;18.20;99.90;;;;;;5060695;28;20105;-70
2022/08/02 01:08:09;;;;;;;2.90;2.47;;;18.00;99.90;;;;;;5059127;28;20151;-71
2022/08/02 01:10:34;;;;;;;2.80;2.55;;;18.00;99.90;;;;;;5056217;28;20044;-70
2022/08/02 01:13:00;;;;;;;3.13;2.63;;;17.90;99.90;;;;;;5059015;28;20444;-70
2022/08/02 01:15:27;;;;;;;3.22;2.92;;;17.90;99.90;;;;;;5056103;28;20114;-70
2022/08/02 01:18:04;;;;;;;2.78;2.58;;;17.80;99.90;;;;;;5039493;28;20084;-70
2022/08/02 01:20:42;;;;;;;3.75;3.15;;;17.80;99.90;;;;;;5056617;28;20477;-70
2022/08/02 01:23:24;;;;;;;3.75;2.63;;;17.80;99.90;;;;;;5058619;28;20037;-70
2022/08/02 01:26:07;;;;;;;2.72;2.53;;;17.80;99.90;;;;;;5057115;28;20025;-70
2022/08/02 01:28:35;;;;;;;;;;;17.90;99.90;;;;;;5057911;28;20480;-70
2022/08/02 01:31:17;;;;;;;5.25;2.35;;;17.90;99.90;;;;;;5059046;28;20450;-70
2022/08/02 01:34:17;;;;;;;4.07;2.38;;;17.90;99.90;;;;;;5054442;28;20163;-70
2022/08/02 01:36:47;;;;;;;3.25;3.00;;;17.90;99.90;;;;;;5019561;28;20044;-71
2022/08/02 01:39:16;;;;;;;4.25;2.72;;;17.80;99.90;;;;;;5058077;28;20047;-71
2022/08/02 01:41:43;;;;;;;3.25;2.95;;;17.70;99.90;;;;;;5059597;28;20548;-71
2022/08/02 01:44:12;;;;;;;2.70;2.50;;;17.60;99.90;;;;;;5060383;28;20036;-71
2022/08/02 01:46:39;;;;;;;3.17;2.97;;;17.60;99.90;;;;;;5055417;28;20108;-71
2022/08/02 01:49:08;;;;;;;2.85;2.65;;;17.60;99.90;;;;;;5043263;28;20456;-70
2022/08/02 01:54:23;;;;;;;3.88;2.20;;;17.70;99.90;;;;;;5055061;28;20055;-71
2022/08/02 01:56:50;;;;;;;2.88;2.30;;;17.60;99.90;;;;;;5056242;28;20039;-71
2022/08/02 01:59:19;;;;;;;5.05;2.50;;;17.50;99.90;;;;;;5061201;28;20115;-71
2022/08/02 02:01:48;;;;;;;3.33;2.30;;;17.40;99.90;;;;;;5052570;28;20031;-71
2022/08/02 02:04:15;;;;;;;5.20;2.45;;;17.30;99.90;;;;;;5052850;28;20044;-71
2022/08/02 02:06:43;;;;;;;3.25;2.95;;;17.40;99.90;;;;;;5050169;28;20029;-71
2022/08/02 02:09:12;;;;;;;3.55;2.80;;;17.40;99.90;;;;;;5052613;28;20104;-71
2022/08/02 02:11:39;;;;;;;3.00;2.80;;;17.30;99.90;;;;;;5050783;28;20032;-71
2022/08/02 02:14:07;;;;;;;3.05;2.80;;;17.30;99.90;;;;;;5050880;28;20561;-71
2022/08/02 02:16:33;;;;;;;3.10;2.70;;;17.30;99.90;;;;;;5051152;28;20065;-71
2022/08/02 02:19:02;;;;;;;3.60;3.00;;;17.30;99.90;;;;;;5053403;28;20044;-71
2022/08/02 02:21:28;;;;;;;2.60;2.40;;;17.30;99.90;;;;;;5056435;28;20036;-71
2022/08/02 02:23:53;;;;;;;3.47;2.65;;;17.30;99.90;;;;;;5031220;28;20469;-71
2022/08/02 02:26:19;;;;;;;3.80;3.50;;;17.40;99.90;;;;;;5049078;28;20482;-70
2022/08/02 02:28:46;;;;;;;3.55;2.65;;;17.40;99.90;;;;;;5037932;28;20048;-71
2022/08/02 02:31:15;;;;;;;2.60;2.40;;;17.30;99.90;;;;;;5053922;28;20035;-71
2022/08/02 02:33:49;;;;;;;3.17;2.92;;;17.20;99.90;;;;;;5048908;28;20115;-71
2022/08/02 02:36:17;;;;;;;2.50;2.30;;;17.20;99.90;;;;;;5052425;28;20042;-71
2022/08/02 02:38:45;;;;;;;4.38;3.00;;;17.20;99.90;;;;;;5051242;28;20029;-70
2022/08/02 02:41:12;;;;;;;4.47;3.13;;;17.20;99.90;;;;;;5058541;28;20087;-71
2022/08/02 02:43:39;;;;;;;3.45;2.90;;;17.10;99.90;;;;;;5032061;28;20040;-71
2022/08/02 02:46:06;;;;;;;6.25;2.80;;;17.10;99.90;;;;;;5060366;28;20099;-71
2022/08/02 02:48:33;;;;;;;4.55;2.78;;;17.20;99.90;;;;;;5051500;28;20043;-71
2022/08/02 02:51:02;;;;;;;3.45;2.70;;;17.30;99.90;;;;;;5058684;28;20497;-71
2022/08/02 02:53:29;;;;;;;3.53;2.75;;;17.20;99.90;;;;;;5050441;28;20079;-71
2022/08/02 02:55:56;;;;;;;3.17;2.97;;;17.30;99.90;;;;;;5059167;28;20413;-71
2022/08/02 02:58:22;;;;;;;6.03;3.85;;;17.30;99.90;;;;;;5056557;28;20021;-71
2022/08/02 03:03:33;;;;;;;3.33;3.00;;;17.30;99.90;;;;;;5054074;28;20963;-71
2022/08/02 03:05:58;;;;;;;2.90;2.70;;;17.30;99.90;;;;;;5059266;28;20103;-71
2022/08/02 03:08:24;;;;;;;3.60;3.30;;;17.30;99.90;;;;;;5056539;28;20032;-70
2022/08/02 03:10:50;;;;;;;4.00;2.92;;;17.30;99.90;;;;;;5053328;28;20041;-70
2022/08/02 03:13:17;;;;;;;3.47;3.28;;;17.20;99.90;;;;;;5057742;28;20025;-70
2022/08/02 03:15:46;;;;;;;3.47;2.78;;;17.10;99.90;;;;;;5057149;28;20075;-70
2022/08/02 03:18:32;;;;;;;4.75;3.00;;;17.20;99.90;;;;;;5056077;28;20028;-70
2022/08/02 03:21:07;;;;;;;3.53;2.97;;;17.30;99.90;;;;;;5056886;28;20678;-70
2022/08/02 03:23:33;;;;;;;3.22;2.70;;;17.30;99.90;;;;;;5054438;28;20036;-71
2022/08/02 03:26:00;;;;;;;3.63;3.13;;;17.30;99.90;;;;;;5052400;28;20064;-71
2022/08/02 03:28:26;;;;;;;3.50;3.20;;;17.20;99.90;;;;;;5050383;28;20036;-71
2022/08/02 03:30:52;;;;;;;3.67;3.38;;;17.10;99.90;;;;;;5058362;28;20031;-71
2022/08/02 03:33:19;;;;;;;3.13;2.80;;;17.20;99.90;;;;;;5053590;28;20408;-71
2022/08/02 03:35:46;;;;;;;3.67;2.97;;;17.10;99.90;;;;;;5056507;28;20444;-71
2022/08/02 03:38:14;;;;;;;4.28;3.42;;;17.00;99.90;;;;;;5056434;28;20045;-71
2022/08/02 03:40:43;;;;;;;3.28;3.08;;;17.10;99.90;;;;;;5056769;28;20040;-71
2022/08/02 03:43:10;;;;;;;2.95;2.75;;;17.10;99.90;;;;;;5053905;28;20548;-71
2022/08/02 03:45:38;;;;;;;3.00;2.70;;;17.20;99.90;;;;;;5054630;28;20413;-71
2022/08/02 03:48:05;;;;;;;7.25;2.60;;;17.20;99.90;;;;;;5060602;28;20033;-72
2022/08/02 03:50:32;;;;;;;3.03;2.80;;;17.20;99.90;;;;;;5055922;28;20036;-70
2022/08/02 03:52:59;;;;;;;4.28;2.50;;;17.30;99.90;;;;;;5055734;28;20097;-71
2022/08/02 03:55:24;;;;;;;3.17;2.88;;;17.30;99.90;;;;;;5056657;28;20028;-70
2022/08/02 03:57:50;;;;;;;3.13;2.92;;;17.20;99.90;;;;;;5054199;28;20097;-71
2022/08/02 04:00:21;;;;;;;3.47;2.92;;;17.20;99.90;;;;;;5051974;28;20131;-71
2022/08/02 04:02:48;;;;;;;3.40;3.10;;;17.10;99.90;;;;;;5050107;28;20032;-71
2022/08/02 04:05:14;;;;;;;6.35;3.42;;;17.10;99.90;;;;;;5054945;28;20042;-71
2022/08/02 04:07:42;;;;;;;3.25;2.97;;;17.20;99.90;;;;;;5053258;28;20036;-71
2022/08/02 04:10:08;;;;;;;3.38;3.08;;;17.20;99.90;;;;;;5053859;28;20119;-71
2022/08/02 04:12:34;;;;;;;3.50;3.30;;;17.30;99.90;;;;;;5056118;28;20068;-71
2022/08/02 04:15:02;;;;;;;3.65;3.35;;;17.40;99.90;;;;;;5035910;28;20079;-70
2022/08/02 04:17:31;;;;;;;5.25;3.00;;;17.50;99.90;;;;;;5054493;28;20036;-71
2022/08/02 04:20:08;;;;;;;3.10;2.67;;;17.50;99.90;;;;;;5055545;28;20033;-71
2022/08/02 04:22:45;;;;;;;3.38;3.08;;;17.50;99.90;;;;;;5055751;28;20404;-71
2022/08/02 04:25:13;;;;;;;4.80;3.00;;;17.50;99.90;;;;;;5054819;28;20033;-71
2022/08/02 04:27:40;;;;;;;2.78;2.60;;;17.60;99.90;;;;;;5056063;28;20029;-71
2022/08/02 04:30:06;;;;;;;3.33;3.03;;;17.60;99.90;;;;;;5048480;28;20708;-71
2022/08/02 04:32:33;;;;;;;5.13;3.60;;;17.60;99.90;;;;;;5057314;28;20037;-71
2022/08/02 04:34:59;;;;;;;3.38;3.08;;;17.70;99.90;;;;;;5055134;28;20036;-71
2022/08/02 04:37:26;;;;;;;3.60;3.30;;;17.70;99.90;;;;;;5058918;28;20093;-71
2022/08/02 04:39:52;;;;;;;3.65;3.17;;;17.80;99.90;;;;;;5055962;28;20033;-71
2022/08/02 04:42:22;;;;;;;2.92;2.70;;;17.90;99.90;;;;;;5056607;28;20139;-70
2022/08/02 04:44:49;;;;;;;3.10;2.80;;;18.00;99.90;;;;;;5046627;28;20051;-71
2022/08/02 04:47:15;;;;;;;4.30;2.97;;;18.00;99.90;;;;;;5056026;28;20032;-71
2022/08/02 04:49:41;;;;;;;3.55;3.25;;;18.10;99.90;;;;;;5051188;28;20339;-72
2022/08/02 04:52:07;;;;;;;4.47;4.07;;;18.20;99.90;;;;;;5054022;28;20051;-70
2022/08/02 04:54:33;;;;;;;5.13;3.25;;;18.40;99.90;;;;;;5055700;28;20088;-71
2022/08/02 04:56:59;;;;;;;3.30;3.10;;;18.40;99.90;;;;;;5053747;28;20039;-70
2022/08/02 04:59:24;;;;;;;3.03;2.83;;;18.40;99.90;;;;;;5055372;28;20044;-70
2022/08/02 05:01:50;;;;;;;7.63;3.75;;;18.50;99.90;;;;;;5051616;28;20056;-70
2022/08/02 05:04:15;;;;;;;3.40;3.10;;;18.70;99.90;;;;;;5057825;28;20093;-70
2022/08/02 05:06:41;;;;;;;3.90;2.90;;;18.80;99.90;;;;;;5054656;28;20098;-71
2022/08/02 05:09:07;;;;;;;4.35;3.17;;;18.90;99.90;;;;;;5056067;28;20107;-70
2022/08/02 05:11:32;;;;;;;3.88;3.22;;;19.00;99.90;;;;;;5057509;28;20059;-71
2022/08/02 05:13:58;;;;;;;3.83;3.05;;;19.00;99.90;;;;;;5057123;28;20043;-70
2022/08/02 05:16:25;;;;;;;3.22;2.95;;;19.10;99.90;;;;;;5050312;28;20051;-71
2022/08/02 05:18:51;;;;;;;3.88;2.70;;;19.10;99.90;;;;;;5055309;28;20041;-71
2022/08/02 05:21:16;;;;;;;4.03;3.10;;;19.20;99.90;;;;;;5053299;28;20048;-71
2022/08/02 05:23:42;;;;;;;3.63;3.15;;;19.30;99.90;;;;;;5054707;28;20036;-71
2022/08/02 05:26:08;;;;;;;4.63;3.17;;;19.40;99.90;;;;;;5061434;28;20040;-71
2022/08/02 05:28:33;;;;;;;6.30;2.75;;;19.50;99.90;;;;;;5061172;28;20524;-70
2022/08/02 05:30:59;;;;;;;4.97;2.85;;;19.70;99.90;;;;;;5056631;28;20456;-71
2022/08/02 05:33:25;;;;;;;3.10;2.90;;;19.90;99.90;;;;;;5052178;28;20071;-71
2022/08/02 05:35:51;;;;;;;2.60;2.40;;;20.00;99.90;;;;;;5056896;28;20123;-70
2022/08/02 05:38:16;;;;;;;3.88;2.33;;;20.10;99.90;;;;;;5060761;28;20040;-70
2022/08/02 05:40:42;;;;;;;3.28;2.97;;;20.30;99.90;;;;;;5056387;28;20413;-71
2022/08/02 05:43:14;;;;;;;2.67;2.47;;;20.40;99.90;;;;;;5059056;28;20028;-71
2022/08/02 05:45:40;;;;;;;3.90;2.45;;;20.60;99.90;;;;;;5057847;28;20075;-71
2022/08/02 05:48:07;;;;;;;4.00;2.30;;;20.70;99.90;;;;;;5062241;28;20147;-71
2022/08/02 05:50:38;;;;;;;4.32;2.38;;;20.80;99.90;;;;;;5052703;28;20029;-71
2022/08/02 05:53:18;;;;;;;3.22;2.67;;;20.80;99.90;;;;;;5058995;28;20152;-71
2022/08/02 05:56:12;;;;;;;2.83;2.60;;;20.90;99.90;;;;;;5056809;28;20024;-71
2022/08/02 05:58:59;;;;;;;3.88;2.45;;;20.90;99.90;;;;;;5041358;28;20139;-70
2022/08/02 06:01:32;;;;;;;2.72;2.53;;;21.10;99.90;;;;;;5058537;28;20045;-70
2022/08/02 06:03:59;;;;;;;3.45;2.92;;;21.20;99.90;;;;;;5057250;28;20033;-70
2022/08/02 06:06:26;;;;;;;4.93;2.47;;;21.20;99.90;;;;;;5052946;28;20052;-70
2022/08/02 06:09:02;;;;;;;4.15;2.85;;;21.30;99.90;;;;;;5054245;28;20114;-71
2022/08/02 06:11:43;;;;;;;3.17;2.70;;;21.40;99.90;;;;;;5056564;28;20032;-71
2022/08/02 06:14:11;;;;;;;3.65;2.40;;;21.50;99.90;;;;;;5056446;28;20033;-71
2022/08/02 06:16:38;;;;;;;2.85;2.10;;;21.60;99.90;;;;;;5058351;28;20054;-70
2022/08/02 06:19:04;;;;;;;2.33;2.13;;;21.80;99.90;;;;;;5050382;28;20163;-69
2022/08/02 06:21:30;;;;;;;3.47;2.28;;;21.90;99.90;;;;;;5049856;28;20507;-68
2022/08/02 06:23:57;;;;;;;2.78;2.05;;;22.10;99.90;;;;;;5049577;28;20033;-68
2022/08/02 06:26:24;;;;;;;2.67;2.40;;;22.30;99.90;;;;;;5053266;28;20036;-67
2022/08/02 06:28:52;;;;;;;4.95;2.20;;;22.40;99.90;;;;;;5058682;28;20512;-68
2022/08/02 06:31:18;;;;;;;4.03;2.20;;;22.50;99.90;;;;;;5052371;28;20041;-68
2022/08/02 06:33:44;;;;;;;3.20;2.20;;;22.60;99.90;;;;;;5054201;28;20119;-68
2022/08/02 06:36:34;;;;;;;3.08;1.67;;;22.70;99.90;;;;;;5060325;28;20147;-68
2022/08/02 06:39:13;;;;;;;2.38;2.17;;;22.90;99.90;;;;;;5059838;28;20124;-68
2022/08/02 06:41:41;;;;;;;3.55;2.00;;;23.00;99.90;;;;;;5053469;28;20037;-68
2022/08/02 06:44:08;;;;;;;3.92;2.10;;;23.10;99.90;;;;;;5058176;28;20044;-68
2022/08/02 06:46:34;;;;;;;3.90;2.30;;;23.40;99.90;;;;;;5049683;28;20040;-67
2022/08/02 06:49:01;;;;;;;2.40;2.00;;;23.50;99.90;;;;;;5052739;28;20052;-67
2022/08/02 06:51:27;;;;;;;2.03;1.70;;;23.50;99.90;;;;;;5056082;28;20043;-67
2022/08/02 06:53:52;;;;;;;4.70;1.83;;;23.70;99.90;;;;;;5055757;28;20024;-67
2022/08/02 06:56:18;;;;;;;3.90;1.73;;;23.80;99.90;;;;;;5040095;28;20064;-66
2022/08/02 06:58:44;;;;;;;1.60;1.50;;;23.90;99.90;;;;;;5044612;28;20508;-67
2022/08/02 07:01:11;;;;;;;2.03;1.83;;;24.10;99.90;;;;;;5054057;28;20043;-67
2022/08/02 07:03:38;;;;;;;1.70;1.48;;;24.20;99.90;;;;;;5053007;28;20036;-67
2022/08/02 07:06:05;;;;;;;2.25;1.40;;;24.30;99.90;;;;;;5053530;28;20048;-65
2022/08/02 07:08:32;;;;;;;3.15;1.20;;;24.40;97.60;;;;;;5053564;28;20028;-67
2022/08/02 07:11:00;;;;;;;2.30;1.55;;;24.40;97.30;;;;;;5051061;28;20040;-65
2022/08/02 07:13:26;;;;;;;2.00;1.77;;;24.50;96.80;;;;;;5044858;28;20557;-65
2022/08/02 07:15:52;;;;;;;2.67;1.60;;;24.50;95.90;;;;;;5052772;28;20128;-64
2022/08/02 07:18:18;;;;;;;1.60;1.50;;;24.60;96.10;;;;;;5038223;28;20039;-65
2022/08/02 07:20:45;;;;;;;2.47;1.80;;;24.70;96.50;;;;;;5055000;28;20051;-65
2022/08/02 07:23:10;;;;;;;1.40;1.30;;;24.80;96.00;;;;;;5054156;28;20490;-65
2022/08/02 07:25:36;;;;;;;2.58;1.30;;;24.90;95.60;;;;;;5057743;28;20094;-65
2022/08/02 07:28:03;;;;;;;3.20;1.30;;;24.90;94.90;;;;;;5038165;28;20047;-64
2022/08/02 07:30:30;;;;;;;1.88;1.48;;;25.00;94.60;;;;;;5048638;28;20074;-64
2022/08/02 07:32:56;;;;;;;3.88;1.42;;;25.10;94.90;;;;;;5051760;28;20040;-65
2022/08/02 07:35:21;;;;;;;1.75;1.55;;;25.20;95.00;;;;;;5050215;28;20123;-65
2022/08/02 07:37:48;;;;;;;2.70;1.33;;;25.30;95.20;;;;;;5057743;28;20041;-65
2022/08/02 07:40:15;;;;;;;1.83;1.60;;;25.30;95.10;;;;;;5058040;28;20098;-65
2022/08/02 07:42:42;;;;;;;1.60;1.50;;;25.40;94.30;;;;;;5052672;28;20099;-65
2022/08/02 07:45:08;;;;;;;3.60;1.50;;;25.40;94.00;;;;;;5057424;28;20116;-65
2022/08/02 07:47:38;;;;;;;2.17;1.63;;;25.50;93.90;;;;;;5054157;28;20563;-65
2022/08/02 07:50:05;;;;;;;1.63;1.50;;;25.60;93.50;;;;;;5056084;28;20123;-65
2022/08/02 07:52:31;;;;;;;1.63;1.27;;;25.70;92.30;;;;;;5045915;28;24971;-65
2022/08/02 07:54:57;;;;;;;2.38;1.60;;;25.60;93.10;;;;;;5054501;28;20674;-66
2022/08/02 07:57:22;;;;;;;4.45;1.63;;;25.50;93.60;;;;;;5031923;28;20170;-65
2022/08/02 07:59:49;;;;;;;2.35;1.60;;;25.60;93.30;;;;;;5048977;28;20044;-66
2022/08/02 08:02:15;;;;;;;7.30;1.40;;;25.70;93.00;;;;;;5053874;28;20409;-66
2022/08/02 08:04:40;;;;;;;2.03;1.45;;;25.80;92.40;;;;;;5057417;28;20040;-65
2022/08/02 08:07:08;;;;;;;1.33;1.27;;;25.70;92.00;;;;;;5050563;28;20440;-66
2022/08/02 08:09:39;;;;;;;1.67;1.58;;;25.80;91.70;;;;;;5055336;28;20036;-65
2022/08/02 08:12:06;;;;;;;1.93;1.70;;;25.80;91.90;;;;;;5043738;28;20131;-66
2022/08/02 08:14:31;;;;;;;1.67;1.50;;;25.80;92.30;;;;;;5054180;28;20281;-65
2022/08/02 08:16:57;;;;;;;4.13;1.58;;;25.90;92.70;;;;;;5053713;28;20040;-65
2022/08/02 08:19:22;;;;;;;4.60;1.35;;;25.90;91.30;;;;;;5058911;28;20719;-66
2022/08/02 08:21:48;;;;;;;1.70;1.35;;;26.00;92.30;;;;;;5051816;28;20086;-65
2022/08/02 08:24:13;;;;;;;1.50;1.27;;;26.10;90.90;;;;;;5048732;28;20574;-65
2022/08/02 08:26:39;;;;;;;2.15;1.40;;;26.10;90.20;;;;;;5049911;28;20043;-65
2022/08/02 08:29:06;;;;;;;1.40;1.30;;;26.10;90.40;;;;;;5046369;28;20068;-65
2022/08/02 08:31:32;;;;;;;2.00;1.42;;;26.10;89.90;;;;;;5053718;28;20071;-65
2022/08/02 08:33:58;;;;;;;1.52;1.40;;;26.10;91.70;;;;;;5051493;28;20048;-65
2022/08/02 08:36:24;;;;;;;3.50;1.60;;;26.20;92.50;;;;;;5057895;28;20032;-64
2022/08/02 08:38:50;;;;;;;2.97;1.42;;;26.30;91.40;;;;;;5048813;28;20063;-65
2022/08/02 08:41:19;;;;;;;5.13;1.33;;;26.40;91.80;;;;;;5049633;28;21000;-65
2022/08/02 08:43:46;;;;;;;8.82;1.75;;;26.50;89.00;;;;;;5046560;28;20111;-65
2022/08/02 08:46:23;;;;;;;1.40;1.20;;;26.40;89.60;;;;;;5048042;28;20029;-65
2022/08/02 08:48:51;;;;;;;1.95;1.40;;;26.50;87.00;;;;;;5046798;28;20032;-64
2022/08/02 08:51:20;;;;;;;2.67;1.30;;;26.50;89.70;;;;;;5046166;28;20174;-64
2022/08/02 08:53:48;;;;;;;1.80;1.35;;;26.50;86.10;;;;;;5050697;28;20033;-65
2022/08/02 08:56:15;;;;;;;1.48;1.20;;;26.50;87.70;;;;;;5053807;28;20127;-64
2022/08/02 08:58:43;;;;;;;1.85;1.13;;;26.50;85.70;;;;;;5046536;28;20508;-65
2022/08/02 09:01:09;;;;;;;1.40;1.30;;;26.50;87.00;;;;;;5053746;28;20032;-65
2022/08/02 09:03:35;;;;;;;1.75;1.38;;;26.60;87.10;;;;;;5054936;28;20025;-64
2022/08/02 09:06:01;;;;;;;1.35;1.25;;;26.70;86.20;;;;;;5052294;28;20041;-64
2022/08/02 09:08:27;;;;;;;3.20;1.10;;;26.70;85.60;;;;;;5051909;28;20021;-65
2022/08/02 09:10:54;;;;;;;0.88;0.88;;;26.70;85.20;;;;;;5056226;28;20048;-65
2022/08/02 09:13:28;;;;;;;2.58;1.40;;;26.70;83.90;;;;;;5050823;28;20037;-65
2022/08/02 09:15:59;;;;;;;4.32;1.48;;;26.70;85.40;;;;;;5059892;28;20052;-64
2022/08/02 09:18:35;;;;;;;2.33;1.37;;;26.70;88.10;;;;;;5056755;28;20606;-65
2022/08/02 09:21:03;;;;;;;1.02;1.02;;;26.90;87.30;;;;;;5053884;28;20298;-65
2022/08/02 09:23:41;;;;;;;1.08;0.90;;;27.00;87.40;;;;;;5057130;28;20646;-66
2022/08/02 09:26:08;;;;;;;2.88;1.23;;;27.10;84.10;;;;;;5055420;28;20033;-65
2022/08/02 09:28:37;;;;;;;2.50;1.02;;;27.20;84.50;;;;;;5054755;28;20036;-65
2022/08/02 09:31:21;;;;;;;1.00;1.00;;;27.20;84.60;;;;;;5054599;28;20722;-65
2022/08/02 09:33:54;;;;;;;2.97;1.10;;;27.30;83.20;;;;;;5056272;28;20033;-65
2022/08/02 09:36:21;;;;;;;1.00;1.00;;;27.20;83.90;;;;;;5055657;28;20032;-65
2022/08/02 09:39:00;;;;;;;1.50;1.00;;;27.30;84.30;;;;;;5058759;28;20036;-65
2022/08/02 09:41:30;;;;;;;2.45;1.10;;;27.40;81.20;;;;;;5056908;28;20703;-65
2022/08/02 09:43:58;;;;;;;3.58;1.25;;;27.50;84.10;;;;;;5055716;28;20072;-65
2022/08/02 09:46:26;;;;;;;2.08;1.00;;;27.60;84.70;;;;;;5053951;28;20036;-65
2022/08/02 09:48:59;;;;;;;1.15;0.93;;;27.70;84.40;;;;;;5053933;28;20081;-65
2022/08/02 09:51:27;;;;;;;0.90;0.90;;;27.90;81.90;;;;;;5037202;28;20842;-65
2022/08/02 09:53:56;;;;;;;1.05;0.90;;;27.90;78.80;;;;;;5057765;28;20127;-65
2022/08/02 09:56:23;;;;;;;1.92;1.13;;;27.90;79.20;;;;;;5056167;28;20040;-65
2022/08/02 09:58:52;;;;;;;1.70;0.90;;;27.80;80.90;;;;;;5048991;28;20032;-65
2022/08/02 10:01:20;;;;;;;2.75;1.05;;;27.80;81.60;;;;;;5048310;28;20069;-66
2022/08/02 10:04:04;;;;;;;1.02;0.90;;;27.90;82.70;;;;;;5050510;28;20025;-65
2022/08/02 10:06:30;;;;;;;3.80;1.10;;;27.90;82.20;;;;;;5050849;28;21362;-65
2022/08/02 10:08:56;;;;;;;3.25;1.08;;;27.80;82.00;;;;;;5039858;28;20131;-65
2022/08/02 10:11:23;;;;;;;2.13;1.10;;;27.80;81.70;;;;;;5035009;28;20033;-65
2022/08/02 10:13:51;;;;;;;2.03;1.13;;;27.80;81.20;;;;;;5049222;28;20072;-66
2022/08/02 10:16:20;;;;;;;1.65;1.13;;;27.80;81.60;;;;;;5044797;28;20041;-66
2022/08/02 10:18:46;;;;;;;3.17;1.20;;;27.80;80.90;;;;;;5033052;28;20492;-65
2022/08/02 10:21:18;;;;;;;1.05;1.05;;;27.80;80.10;;;;;;5043923;28;20131;-65
2022/08/02 10:23:45;;;;;;;1.27;1.17;;;27.90;79.90;;;;;;5037998;28;20036;-66
2022/08/02 10:26:16;;;;;;;4.82;0.93;;;27.90;81.60;;;;;;5035269;28;20039;-65
2022/08/02 10:28:44;;;;;;;2.73;1.40;;;28.00;83.30;;;;;;5053457;28;20059;-65
2022/08/02 10:31:13;;;;;;;1.48;1.10;;;28.00;79.10;;;;;;5051783;28;20039;-65
2022/08/02 10:33:39;;;;;;;1.40;0.98;;;28.00;81.60;;;;;;5053217;28;20035;-65
2022/08/02 10:36:07;;;;;;;3.85;1.00;;;28.10;78.60;;;;;;5022858;28;20757;-65
2022/08/02 10:38:34;;;;;;;1.27;1.13;;;27.90;78.10;;;;;;5042299;28;20037;-63
2022/08/02 10:41:00;;;;;;;1.35;1.25;;;27.80;78.30;;;;;;5045375;28;20037;-65
2022/08/02 10:43:34;;;;;;;1.27;1.20;;;27.60;77.60;;;;;;5043544;28;20041;-64
2022/08/02 10:46:22;;;;;;;3.45;1.25;;;27.50;79.70;;;;;;5048412;28;20404;-64
2022/08/02 10:49:07;;;;;;;1.52;1.40;;;27.50;83.00;;;;;;5058390;28;20056;-64
2022/08/02 10:52:18;;;;;;;1.02;1.02;;;27.60;83.50;;;;;;5053563;28;20040;-65
2022/08/02 10:54:52;;;;;;;2.95;1.30;;;27.60;81.70;;;;;;5055130;28;21241;-65
2022/08/02 10:57:20;;;;;;;1.98;1.67;;;27.60;79.10;;;;;;5051925;28;20206;-65
2022/08/02 10:59:46;;;;;;;1.48;1.02;;;27.60;80.00;;;;;;5045262;28;20055;-65
2022/08/02 11:02:12;;;;;;;1.25;1.10;;;27.60;80.70;;;;;;5050362;28;20037;-65
2022/08/02 11:04:40;;;;;;;1.20;1.10;;;27.60;81.90;;;;;;5056539;28;20151;-65
2022/08/02 11:07:18;;;;;;;1.58;1.30;;;27.70;83.50;;;;;;5037923;28;20028;-64
2022/08/02 11:09:45;;;;;;;2.88;1.33;;;27.80;84.20;;;;;;5048843;28;20059;-65
2022/08/02 11:12:18;;;;;;;1.45;1.00;;;27.80;81.80;;;;;;5048037;28;20035;-64
2022/08/02 11:14:57;;;;;;;1.75;1.20;;;27.90;80.80;;;;;;5038279;28;21803;-65
2022/08/02 11:17:23;;;;;;;1.70;1.50;;;28.00;80.70;;;;;;5044560;28;20054;-64
2022/08/02 11:20:07;;;;;;;1.33;1.23;;;27.90;78.60;;;;;;5059283;28;20032;-65
2022/08/02 11:22:34;;;;;;;1.58;1.20;;;27.90;79.20;;;;;;5056485;28;20397;-65
2022/08/02 11:25:24;;;;;;;1.35;1.25;;;27.90;79.50;;;;;;5046903;28;20573;-65
2022/08/02 11:28:07;;;;;;;0.98;0.98;;;28.10;77.60;;;;;;5041089;28;20055;-65
2022/08/02 11:30:33;;;;;;;2.58;0.98;;;28.20;82.50;;;;;;5043953;28;20124;-65
2022/08/02 11:33:00;;;;;;;2.85;1.60;;;28.50;80.00;;;;;;5055546;28;20173;-66
2022/08/02 11:35:36;;;;;;;0.80;0.80;;;28.60;79.30;;;;;;5046620;28;20501;-65
2022/08/02 11:38:17;;;;;;;1.25;0.90;;;28.80;75.20;;;;;;5039045;28;20136;-63
2022/08/02 11:40:43;;;;;;;0.80;0.80;;;28.70;78.80;;;;;;5046502;28;20581;-64
2022/08/02 11:43:20;;;;;;;0.80;0.80;;;28.80;75.40;;;;;;5040840;28;20089;-63
2022/08/02 11:45:47;;;;;;;1.20;1.10;;;28.80;75.70;;;;;;5050104;28;20084;-63
2022/08/02 11:48:12;;;;;;;0.93;0.80;;;28.90;75.40;;;;;;5048527;28;20102;-64
2022/08/02 11:50:38;;;;;;;1.35;0.88;;;28.80;70.90;;;;;;5053257;28;20045;-64
2022/08/02 11:53:15;;;;;;;0.93;0.75;;;28.70;70.30;;;;;;5051591;28;20094;-63
2022/08/02 11:55:40;;;;;;;2.13;0.88;;;28.70;72.20;;;;;;5054163;28;20031;-62
2022/08/02 11:58:08;;;;;;;1.35;0.73;;;28.80;73.40;;;;;;5055405;28;20033;-63
2022/08/02 12:00:34;;;;;;;2.90;0.90;;;28.90;74.00;;;;;;5053571;28;20084;-63
2022/08/02 12:03:00;;;;;;;1.33;1.20;;;29.10;72.70;;;;;;5052947;28;20127;-63
2022/08/02 12:05:26;;;;;;;1.02;0.98;;;29.20;71.70;;;;;;5049072;28;20545;-63
2022/08/02 12:07:52;;;;;;;1.23;0.82;;;29.10;71.60;;;;;;5054546;28;20673;-62
2022/08/02 12:10:20;;;;;;;1.13;0.80;;;29.10;73.30;;;;;;5051939;28;20515;-63
2022/08/02 12:12:51;;;;;;;1.20;1.10;;;29.10;75.20;;;;;;5039427;28;20099;-63
2022/08/02 12:15:38;;;;;;;0.88;0.88;;;29.10;74.60;;;;;;5045862;28;20064;-64
2022/08/02 12:20:53;;;;;;;2.58;0.95;;;29.10;75.60;;;;;;5046190;28;20443;-63
2022/08/02 12:23:19;;;;;;;1.23;1.00;;;29.10;75.10;;;;;;5042498;28;20516;-63
2022/08/02 12:25:44;;;;;;;1.08;1.08;;;29.10;73.40;;;;;;5035223;28;20048;-63
2022/08/02 12:28:21;;;;;;;1.90;0.93;;;29.00;70.50;;;;;;5041668;28;20378;-64
2022/08/02 12:30:52;;;;;;;1.35;1.25;;;28.80;70.40;;;;;;5055054;28;20493;-63
2022/08/02 12:33:19;;;;;;;;;;;28.70;73.20;;;;;;5049688;28;20097;-63
2022/08/02 12:35:44;;;;;;;1.10;0.98;;;28.50;78.90;;;;;;5052195;28;19948;-63
2022/08/02 12:38:11;;;;;;;3.00;0.90;;;28.50;78.80;;;;;;5050046;28;20178;-63
2022/08/02 12:40:36;;;;;;;0.85;0.85;;;28.50;80.40;;;;;;5047772;28;20083;-63
2022/08/02 12:43:05;;;;;;;0.90;0.90;;;28.40;79.20;;;;;;5049122;28;20124;-63
2022/08/02 12:45:53;;;;;;;0.80;0.80;;;28.30;82.80;;;;;;5050270;28;20488;-63
2022/08/02 12:48:35;;;;;;;3.17;0.88;;;28.20;82.20;;;;;;5054225;28;21221;-63
2022/08/02 12:51:39;;;;;;;1.17;0.82;;;28.10;83.30;;;;;;5053872;28;20050;-63
2022/08/02 12:54:16;;;;;;;0.80;0.80;;;28.00;79.80;;;;;;5051154;28;20028;-63
2022/08/02 12:56:42;;;;;;;0.75;0.70;;;27.90;78.70;;;;;;5049708;28;20053;-63
2022/08/02 12:59:08;;;;;;;1.83;1.00;;;27.90;80.70;;;;;;5048786;28;20032;-63
2022/08/02 13:01:34;;;;;;;1.98;0.82;;;27.90;82.20;;;;;;5054822;28;20037;-64
2022/08/02 13:04:00;;;;;;;0.90;0.90;;;27.90;84.40;;;;;;5052419;28;20048;-65
2022/08/02 13:06:26;;;;;;;0.60;0.60;;;27.90;85.70;;;;;;5048589;28;21731;-65